Time;durP1;ratioP1;P1;durP2;ratioP2;P2;SDS_P1;SDS_P2;PMS_P1;PMS_P2;Temp;Humidity;BMP_temperature;BMP_pressure;BME280_temperature;BME280_humidity;BME280_pressure;Samples;Min_cycle;Max_cycle;Signal;HPM_P1;HPM_P2
2021/03/27 00:01:51;;;;;;;;;4.50;2.00;;;;;;;;5077797;28;11469;-81
2021/03/27 00:04:29;;;;;;;;;2.50;2.50;;;;;;;;5085168;28;11574;-80
2021/03/27 00:07:05;;;;;;;;;1.25;1.00;;;;;;;;5079748;28;12290;-81
2021/03/27 00:09:37;;;;;;;;;1.00;1.00;;;;;;;;5080927;28;11630;-80
2021/03/27 00:12:17;;;;;;;;;1.00;1.00;;;;;;;;5083096;28;11497;-80
2021/03/27 00:14:47;;;;;;;;;4.25;1.00;;;;;;;;5082072;28;12337;-80
2021/03/27 00:17:21;;;;;;;;;5.50;3.00;;;;;;;;5083754;28;11515;-79
2021/03/27 00:19:56;;;;;;;;;4.50;2.00;;;;;;;;5082759;28;11538;-81
2021/03/27 00:22:26;;;;;;;;;0.00;0.00;;;;;;;;5084656;28;11511;-80
2021/03/27 00:25:08;;;;;;;;;4.00;1.00;;;;;;;;5082523;28;11520;-79
2021/03/27 00:27:40;;;;;;;;;1.00;1.00;;;;;;;;5082364;28;11492;-81
2021/03/27 00:30:11;;;;;;;;;2.00;2.00;;;;;;;;5084055;28;11520;-82
2021/03/27 00:32:41;;;;;;;;;0.00;0.00;;;;;;;;5082927;28;11536;-79
2021/03/27 00:35:13;;;;;;;;;0.75;0.75;;;;;;;;5083903;28;11515;-79
2021/03/27 00:37:42;;;;;;;;;1.00;1.00;;;;;;;;5083682;28;11488;-79
2021/03/27 00:40:17;;;;;;;;;1.75;1.75;;;;;;;;5084862;28;11522;-79
2021/03/27 00:42:47;;;;;;;;;1.00;1.00;;;;;;;;5087069;28;11475;-79
2021/03/27 00:45:17;;;;;;;;;4.00;1.00;;;;;;;;5083344;28;11510;-78
2021/03/27 00:47:50;;;;;;;;;0.50;0.50;;;;;;;;5084701;28;11543;-78
2021/03/27 00:50:22;;;;;;;;;1.00;1.00;;;;;;;;5082180;28;11647;-79
2021/03/27 00:52:55;;;;;;;;;1.75;1.25;;;;;;;;5081928;28;11536;-78
2021/03/27 00:55:26;;;;;;;;;1.00;1.00;;;;;;;;5081797;28;11617;-78
2021/03/27 00:57:58;;;;;;;;;1.00;1.00;;;;;;;;5083922;28;12158;-78
2021/03/27 01:00:30;;;;;;;;;1.00;0.00;;;;;;;;5081943;28;11467;-78
2021/03/27 01:03:02;;;;;;;;;0.75;0.75;;;;;;;;5082192;28;11513;-80
2021/03/27 01:05:30;;;;;;;;;0.25;0.25;;;;;;;;5082834;28;11610;-77
2021/03/27 01:08:01;;;;;;;;;1.00;1.00;;;;;;;;5082747;28;11494;-79
2021/03/27 01:10:36;;;;;;;;;6.00;0.50;;;;;;;;5083294;28;11484;-77
2021/03/27 01:13:06;;;;;;;;;2.00;0.00;;;;;;;;5078357;28;12303;-77
2021/03/27 01:15:40;;;;;;;;;3.75;0.75;;;;;;;;5082783;28;11505;-78
2021/03/27 01:18:10;;;;;;;;;0.00;0.00;;;;;;;;5084434;28;12358;-77
2021/03/27 01:20:40;;;;;;;;;1.00;1.00;;;;;;;;5082103;28;11615;-80
2021/03/27 01:23:09;;;;;;;;;0.00;0.00;;;;;;;;5083905;28;11542;-79
2021/03/27 01:25:39;;;;;;;;;1.00;1.00;;;;;;;;5082139;28;11500;-80
2021/03/27 01:28:09;;;;;;;;;2.00;1.00;;;;;;;;5085276;28;11484;-81
2021/03/27 01:30:41;;;;;;;;;0.50;0.50;;;;;;;;5080771;28;12327;-78
2021/03/27 01:33:22;;;;;;;;;1.00;1.00;;;;;;;;5083125;28;11589;-77
2021/03/27 01:35:55;;;;;;;;;1.25;0.00;;;;;;;;5081019;28;11606;-79
2021/03/27 01:38:25;;;;;;;;;0.00;0.00;;;;;;;;5079462;28;11502;-76
2021/03/27 01:41:09;;;;;;;;;0.00;0.00;;;;;;;;5085293;28;11616;-79
2021/03/27 01:43:49;;;;;;;;;0.50;0.50;;;;;;;;5080088;28;12273;-79
2021/03/27 01:46:31;;;;;;;;;0.00;0.00;;;;;;;;5077165;28;11504;-79
2021/03/27 01:49:05;;;;;;;;;1.50;0.00;;;;;;;;5080930;28;11680;-82
2021/03/27 01:51:55;;;;;;;;;2.00;0.00;;;;;;;;5081634;28;11730;-81
2021/03/27 01:54:27;;;;;;;;;0.25;0.25;;;;;;;;5080741;28;11491;-82
2021/03/27 01:57:07;;;;;;;;;0.00;0.00;;;;;;;;5086548;28;11485;-83
2021/03/27 01:59:38;;;;;;;;;1.00;0.00;;;;;;;;5083785;28;11562;-82
2021/03/27 02:02:10;;;;;;;;;3.00;1.00;;;;;;;;5076568;28;11564;-81
2021/03/27 02:04:40;;;;;;;;;0.00;0.00;;;;;;;;5086951;28;11486;-81
2021/03/27 02:07:12;;;;;;;;;0.00;0.00;;;;;;;;5095391;28;11488;-81
2021/03/27 02:09:47;;;;;;;;;0.00;0.00;;;;;;;;5085868;28;11535;-80
2021/03/27 02:12:28;;;;;;;;;0.00;0.00;;;;;;;;5086608;28;11509;-81
2021/03/27 02:14:58;;;;;;;;;1.00;1.00;;;;;;;;5085493;28;11524;-81
2021/03/27 02:17:31;;;;;;;;;0.00;0.00;;;;;;;;5086844;28;11512;-81
2021/03/27 02:20:18;;;;;;;;;0.50;0.00;;;;;;;;5087164;28;11505;-80
2021/03/27 02:22:55;;;;;;;;;0.25;0.00;;;;;;;;5086746;28;11500;-81
2021/03/27 02:25:53;;;;;;;;;0.00;0.00;;;;;;;;5086231;28;11500;-81
2021/03/27 02:28:32;;;;;;;;;0.75;0.75;;;;;;;;5054720;28;11593;-81
2021/03/27 02:31:07;;;;;;;;;0.25;0.25;;;;;;;;5085634;27;11517;-80
2021/03/27 02:33:38;;;;;;;;;0.00;0.00;;;;;;;;5085583;28;11527;-80
2021/03/27 02:36:16;;;;;;;;;0.00;0.00;;;;;;;;5085677;28;11539;-81
2021/03/27 02:39:01;;;;;;;;;2.00;1.00;;;;;;;;5086064;28;11510;-79
2021/03/27 02:41:36;;;;;;;;;1.00;1.00;;;;;;;;5084684;28;11639;-82
2021/03/27 02:44:08;;;;;;;;;0.00;0.00;;;;;;;;5084731;28;11598;-82
2021/03/27 02:46:41;;;;;;;;;0.25;0.25;;;;;;;;5086927;28;12316;-82
2021/03/27 02:49:23;;;;;;;;;2.00;0.75;;;;;;;;5083978;28;11499;-80
2021/03/27 02:51:55;;;;;;;;;1.00;0.00;;;;;;;;5086355;28;11484;-78
2021/03/27 02:54:28;;;;;;;;;0.00;0.00;;;;;;;;5081835;28;11489;-80
2021/03/27 02:56:58;;;;;;;;;0.00;0.00;;;;;;;;5081596;28;12306;-81
2021/03/27 02:59:41;;;;;;;;;1.50;0.00;;;;;;;;5086338;28;11534;-81
2021/03/27 03:02:17;;;;;;;;;0.00;0.00;;;;;;;;5085915;28;11453;-78
2021/03/27 03:04:47;;;;;;;;;2.50;1.00;;;;;;;;5087837;28;11584;-80
2021/03/27 03:07:22;;;;;;;;;0.00;0.00;;;;;;;;5075298;28;11650;-79
2021/03/27 03:09:55;;;;;;;;;2.00;0.50;;;;;;;;5082907;28;11664;-81
2021/03/27 03:12:32;;;;;;;;;0.00;0.00;;;;;;;;5085047;28;12234;-80
2021/03/27 03:15:13;;;;;;;;;0.50;0.00;;;;;;;;5083942;28;11505;-81
2021/03/27 03:17:47;;;;;;;;;0.00;0.00;;;;;;;;5079734;28;10985;-80
2021/03/27 03:20:20;;;;;;;;;0.00;0.00;;;;;;;;5083075;28;11499;-79
2021/03/27 03:22:54;;;;;;;;;1.00;0.00;;;;;;;;5085454;28;11511;-76
2021/03/27 03:25:25;;;;;;;;;0.00;0.00;;;;;;;;5078128;28;11532;-77
2021/03/27 03:28:06;;;;;;;;;1.00;0.25;;;;;;;;5084547;28;11491;-76
2021/03/27 03:30:39;;;;;;;;;0.25;0.25;;;;;;;;5083779;28;11418;-81
2021/03/27 03:33:24;;;;;;;;;1.25;0.75;;;;;;;;5083487;28;11502;-79
2021/03/27 03:35:55;;;;;;;;;0.25;0.00;;;;;;;;5083317;28;11506;-78
2021/03/27 03:38:50;;;;;;;;;0.00;0.00;;;;;;;;5085581;28;11644;-79
2021/03/27 03:41:38;;;;;;;;;1.50;0.00;;;;;;;;5085107;28;12350;-79
2021/03/27 03:44:11;;;;;;;;;1.00;0.00;;;;;;;;5084634;28;11634;-79
2021/03/27 03:46:46;;;;;;;;;0.00;0.00;;;;;;;;5084926;28;11515;-78
2021/03/27 03:49:52;;;;;;;;;0.75;0.00;;;;;;;;5083551;28;11500;-80
2021/03/27 03:52:33;;;;;;;;;1.00;1.00;;;;;;;;5049387;28;11654;-80
2021/03/27 03:55:09;;;;;;;;;0.25;0.25;;;;;;;;5084051;28;12439;-80
2021/03/27 03:57:49;;;;;;;;;2.00;2.00;;;;;;;;5084672;28;12345;-80
2021/03/27 04:00:19;;;;;;;;;1.25;0.75;;;;;;;;5086402;28;11486;-79
2021/03/27 04:02:58;;;;;;;;;1.00;0.25;;;;;;;;5089166;28;11471;-79
2021/03/27 04:05:35;;;;;;;;;0.00;0.00;;;;;;;;5082859;28;11578;-81
2021/03/27 04:08:09;;;;;;;;;0.00;0.00;;;;;;;;5083324;28;11539;-80
2021/03/27 04:10:36;;;;;;;;;1.00;0.00;;;;;;;;5084194;28;11632;-79
2021/03/27 04:13:07;;;;;;;;;1.00;1.00;;;;;;;;5084500;28;11510;-81
2021/03/27 04:15:37;;;;;;;;;0.00;0.00;;;;;;;;5084055;28;11495;-82
2021/03/27 04:18:12;;;;;;;;;0.00;0.00;;;;;;;;5085370;28;12208;-82
2021/03/27 04:20:51;;;;;;;;;0.00;0.00;;;;;;;;5083004;28;11609;-78
2021/03/27 04:23:24;;;;;;;;;1.00;1.00;;;;;;;;5084495;28;11510;-79
2021/03/27 04:26:12;;;;;;;;;1.00;1.00;;;;;;;;5083792;28;11489;-80
2021/03/27 04:28:58;;;;;;;;;2.25;0.75;;;;;;;;5075930;28;11555;-80
2021/03/27 04:31:30;;;;;;;;;0.00;0.00;;;;;;;;5088027;27;11470;-80
2021/03/27 04:34:04;;;;;;;;;1.00;0.00;;;;;;;;5082586;28;11523;-81
2021/03/27 04:36:38;;;;;;;;;0.00;0.00;;;;;;;;5079529;28;11621;-80
2021/03/27 04:39:12;;;;;;;;;0.00;0.00;;;;;;;;5084866;28;11499;-80
2021/03/27 04:41:43;;;;;;;;;0.00;0.00;;;;;;;;5083194;28;11502;-81
2021/03/27 04:44:20;;;;;;;;;1.75;1.75;;;;;;;;5083147;28;11621;-81
2021/03/27 04:46:54;;;;;;;;;2.00;0.00;;;;;;;;5085185;28;11512;-80
2021/03/27 04:49:27;;;;;;;;;1.00;0.75;;;;;;;;5088437;28;11510;-80
2021/03/27 04:52:01;;;;;;;;;0.00;0.00;;;;;;;;5082395;28;12271;-80
2021/03/27 04:54:39;;;;;;;;;0.00;0.00;;;;;;;;5083534;28;11517;-79
2021/03/27 04:57:16;;;;;;;;;0.00;0.00;;;;;;;;5083391;28;11524;-81
2021/03/27 05:00:08;;;;;;;;;0.75;0.75;;;;;;;;5077841;28;11522;-80
2021/03/27 05:02:39;;;;;;;;;1.00;0.00;;;;;;;;5074850;28;11484;-79
2021/03/27 05:05:15;;;;;;;;;0.00;0.00;;;;;;;;5083640;28;11493;-78
2021/03/27 05:07:51;;;;;;;;;2.50;0.00;;;;;;;;5082612;28;11499;-79
2021/03/27 05:10:30;;;;;;;;;1.00;0.00;;;;;;;;5084294;28;11483;-78
2021/03/27 05:13:01;;;;;;;;;1.00;1.00;;;;;;;;5080360;28;11641;-80
2021/03/27 05:15:36;;;;;;;;;0.00;0.00;;;;;;;;5083492;28;12525;-78
2021/03/27 05:18:29;;;;;;;;;0.00;0.00;;;;;;;;5079742;28;11689;-80
2021/03/27 05:21:02;;;;;;;;;1.50;0.50;;;;;;;;5082331;28;11470;-80
2021/03/27 05:23:46;;;;;;;;;0.00;0.00;;;;;;;;5083465;28;12297;-80
2021/03/27 05:26:19;;;;;;;;;0.75;0.75;;;;;;;;5080145;28;11522;-80
2021/03/27 05:29:03;;;;;;;;;2.25;1.25;;;;;;;;5084017;28;12275;-80
2021/03/27 05:31:35;;;;;;;;;0.00;0.00;;;;;;;;5081563;28;12223;-80
2021/03/27 05:34:31;;;;;;;;;0.50;0.25;;;;;;;;5081304;28;11528;-80
2021/03/27 05:37:29;;;;;;;;;1.50;0.00;;;;;;;;5082793;28;11506;-79
2021/03/27 05:40:12;;;;;;;;;0.25;0.25;;;;;;;;5079666;28;12329;-80
2021/03/27 05:43:16;;;;;;;;;0.00;0.00;;;;;;;;5081630;28;11503;-80
2021/03/27 05:46:35;;;;;;;;;0.00;0.00;;;;;;;;5043705;28;11691;-80
2021/03/27 05:49:36;;;;;;;;;0.00;0.00;;;;;;;;5081163;28;11600;-81
2021/03/27 05:52:24;;;;;;;;;1.00;1.00;;;;;;;;5081076;28;11503;-80
2021/03/27 05:55:18;;;;;;;;;3.00;2.00;;;;;;;;5082466;28;12236;-81
2021/03/27 05:58:20;;;;;;;;;0.00;0.00;;;;;;;;5077210;28;11604;-80
2021/03/27 06:00:55;;;;;;;;;0.25;0.25;;;;;;;;5079573;28;11464;-82
2021/03/27 06:04:00;;;;;;;;;0.25;0.25;;;;;;;;5082864;28;11564;-82
2021/03/27 06:06:49;;;;;;;;;3.75;3.75;;;;;;;;4990204;28;11696;-81
2021/03/27 06:09:50;;;;;;;;;2.00;0.50;;;;;;;;5078957;28;11484;-80
2021/03/27 06:12:52;;;;;;;;;1.25;0.75;;;;;;;;5081792;28;11498;-86
2021/03/27 06:15:52;;;;;;;;;0.00;0.00;;;;;;;;5073591;28;11515;-85
2021/03/27 06:18:48;;;;;;;;;0.00;0.00;;;;;;;;5080398;28;11502;-93
2021/03/27 06:21:24;;;;;;;;;1.00;1.00;;;;;;;;5084499;28;11526;-87
2021/03/27 06:24:11;;;;;;;;;1.00;1.00;;;;;;;;5079640;28;11598;-80
2021/03/27 06:27:03;;;;;;;;;1.00;0.00;;;;;;;;5085984;28;12217;-80
2021/03/27 06:30:01;;;;;;;;;1.00;1.00;;;;;;;;5090185;28;11632;-81
2021/03/27 06:33:15;;;;;;;;;2.00;0.75;;;;;;;;5076592;28;11458;-88
2021/03/27 06:36:01;;;;;;;;;0.00;0.00;;;;;;;;5083810;28;11517;-90
2021/03/27 06:39:19;;;;;;;;;0.00;0.00;;;;;;;;5086333;28;11537;-76
2021/03/27 06:42:13;;;;;;;;;1.75;0.75;;;;;;;;5077964;28;12295;-75
2021/03/27 06:45:03;;;;;;;;;0.75;0.75;;;;;;;;5073829;28;11633;-80
2021/03/27 06:47:50;;;;;;;;;1.00;1.00;;;;;;;;5073332;28;12184;-71
2021/03/27 06:51:00;;;;;;;;;0.00;0.00;;;;;;;;5081391;28;11611;-73
2021/03/27 06:53:43;;;;;;;;;0.00;0.00;;;;;;;;5073393;28;11691;-71
2021/03/27 06:56:31;;;;;;;;;1.00;1.00;;;;;;;;5083527;28;11503;-68
2021/03/27 06:59:17;;;;;;;;;1.25;1.25;;;;;;;;5083512;28;12211;-69
2021/03/27 07:02:21;;;;;;;;;2.00;1.00;;;;;;;;5076823;28;11432;-72
2021/03/27 07:05:25;;;;;;;;;1.00;1.00;;;;;;;;5085486;28;11483;-72
2021/03/27 07:08:07;;;;;;;;;1.25;0.75;;;;;;;;5083867;28;11651;-69
2021/03/27 07:11:12;;;;;;;;;1.50;0.00;;;;;;;;5081072;28;12299;-69
2021/03/27 07:14:17;;;;;;;;;0.00;0.00;;;;;;;;5076013;28;11951;-68
2021/03/27 07:17:07;;;;;;;;;1.00;1.00;;;;;;;;5067431;28;11476;-70
2021/03/27 07:20:09;;;;;;;;;0.25;0.25;;;;;;;;5082831;28;11491;-68
2021/03/27 07:22:46;;;;;;;;;1.50;0.50;;;;;;;;5083832;28;11495;-68
2021/03/27 07:25:35;;;;;;;;;0.75;0.75;;;;;;;;5082691;28;11658;-68
2021/03/27 07:28:26;;;;;;;;;0.25;0.25;;;;;;;;5083621;28;11646;-67
2021/03/27 07:31:22;;;;;;;;;1.00;1.00;;;;;;;;5083102;28;11460;-68
2021/03/27 07:34:37;;;;;;;;;0.75;0.75;;;;;;;;5070949;28;11592;-69
2021/03/27 07:37:33;;;;;;;;;0.00;0.00;;;;;;;;5008757;28;11544;-68
2021/03/27 07:40:27;;;;;;;;;0.00;0.00;;;;;;;;5011916;28;11557;-69
2021/03/27 07:43:22;;;;;;;;;0.50;0.50;;;;;;;;5052982;28;11659;-69
2021/03/27 07:46:06;;;;;;;;;0.00;0.00;;;;;;;;5082688;28;11519;-68
2021/03/27 07:48:59;;;;;;;;;0.50;0.50;;;;;;;;5083843;28;11520;-69
2021/03/27 07:51:52;;;;;;;;;1.25;1.25;;;;;;;;5078521;28;11532;-67
2021/03/27 07:54:57;;;;;;;;;3.50;1.00;;;;;;;;5074601;28;11511;-67
2021/03/27 07:57:59;;;;;;;;;0.75;0.75;;;;;;;;5082553;28;11631;-68
2021/03/27 08:00:54;;;;;;;;;2.50;0.75;;;;;;;;5079865;27;11561;-68
2021/03/27 08:03:57;;;;;;;;;0.50;0.50;;;;;;;;5083835;28;11622;-68
2021/03/27 08:06:56;;;;;;;;;2.50;0.50;;;;;;;;5084515;28;11504;-68
2021/03/27 08:10:02;;;;;;;;;1.75;1.50;;;;;;;;5022512;28;11598;-67
2021/03/27 08:12:57;;;;;;;;;0.75;0.75;;;;;;;;5083905;28;11496;-68
2021/03/27 08:15:31;;;;;;;;;1.25;0.75;;;;;;;;5081782;28;11618;-67
2021/03/27 08:18:14;;;;;;;;;0.00;0.00;;;;;;;;5084928;28;12361;-68
2021/03/27 08:20:53;;;;;;;;;1.00;1.00;;;;;;;;5083913;28;11557;-68
2021/03/27 08:23:46;;;;;;;;;2.00;0.75;;;;;;;;5093138;28;11575;-69
2021/03/27 08:26:39;;;;;;;;;0.50;0.25;;;;;;;;5082981;28;11435;-68
2021/03/27 08:29:47;;;;;;;;;2.00;0.00;;;;;;;;5083444;28;11563;-69
2021/03/27 08:32:38;;;;;;;;;0.00;0.00;;;;;;;;5082459;28;12082;-68
2021/03/27 08:35:20;;;;;;;;;1.50;1.50;;;;;;;;5084873;28;11427;-68
2021/03/27 08:38:29;;;;;;;;;2.00;0.25;;;;;;;;5078251;28;12272;-68
2021/03/27 08:41:23;;;;;;;;;2.00;1.00;;;;;;;;5018719;28;11517;-68
2021/03/27 08:44:16;;;;;;;;;1.25;1.25;;;;;;;;5050886;28;11697;-68
2021/03/27 08:47:03;;;;;;;;;1.00;1.00;;;;;;;;5084191;28;11596;-68
2021/03/27 08:49:52;;;;;;;;;0.75;0.75;;;;;;;;5076452;28;11180;-68
2021/03/27 08:52:51;;;;;;;;;1.50;0.50;;;;;;;;5084106;28;10960;-68
2021/03/27 08:55:41;;;;;;;;;1.00;1.00;;;;;;;;5082852;28;10942;-69
2021/03/27 08:58:35;;;;;;;;;0.00;0.00;;;;;;;;5080120;28;10833;-67
2021/03/27 09:01:33;;;;;;;;;2.25;0.50;;;;;;;;5073342;27;10752;-68
2021/03/27 09:04:31;;;;;;;;;1.50;1.50;;;;;;;;5080220;28;10824;-69
2021/03/27 09:07:39;;;;;;;;;2.00;1.00;;;;;;;;5054256;28;11576;-68
2021/03/27 09:10:36;;;;;;;;;0.25;0.25;;;;;;;;5083522;28;10778;-69
2021/03/27 09:13:25;;;;;;;;;0.25;0.25;;;;;;;;5087664;28;10914;-71
2021/03/27 09:16:36;;;;;;;;;2.50;1.00;;;;;;;;5079835;28;11695;-68
2021/03/27 09:19:37;;;;;;;;;0.75;0.00;;;;;;;;5082764;28;10747;-69
2021/03/27 09:22:40;;;;;;;;;2.00;0.50;;;;;;;;5053916;28;10844;-69
2021/03/27 09:25:17;;;;;;;;;1.25;1.25;;;;;;;;5072597;28;10645;-72
2021/03/27 09:28:01;;;;;;;;;2.50;2.00;;;;;;;;5082661;28;11193;-71
2021/03/27 09:30:42;;;;;;;;;1.00;1.00;;;;;;;;5082228;28;10572;-71
2021/03/27 09:33:17;;;;;;;;;1.50;0.00;;;;;;;;5093877;28;10526;-70
2021/03/27 09:36:08;;;;;;;;;0.25;0.25;;;;;;;;5083784;28;10904;-68
2021/03/27 09:38:39;;;;;;;;;2.75;1.25;;;;;;;;5078332;28;10541;-69
2021/03/27 09:41:38;;;;;;;;;2.00;1.00;;;;;;;;5087319;28;10477;-69
2021/03/27 09:44:18;;;;;;;;;1.00;1.00;;;;;;;;5078489;28;10579;-70
2021/03/27 09:46:58;;;;;;;;;1.00;1.00;;;;;;;;5076442;28;10294;-71
2021/03/27 09:49:32;;;;;;;;;2.25;1.00;;;;;;;;5082686;28;11639;-68
2021/03/27 09:52:15;;;;;;;;;0.00;0.00;;;;;;;;5081868;28;10387;-68
2021/03/27 09:54:46;;;;;;;;;1.25;0.25;;;;;;;;5083032;28;10073;-70
2021/03/27 09:57:25;;;;;;;;;1.25;0.75;;;;;;;;5083192;28;10051;-67
2021/03/27 10:00:10;;;;;;;;;1.00;1.00;;;;;;;;5074771;28;9959;-69
2021/03/27 10:02:40;;;;;;;;;2.75;0.00;;;;;;;;5071930;28;10103;-69
2021/03/27 10:05:34;;;;;;;;;3.25;1.00;;;;;;;;5081454;28;9955;-68
2021/03/27 10:08:19;;;;;;;;;0.50;0.25;;;;;;;;5076558;28;9904;-69
2021/03/27 10:11:01;;;;;;;;;1.00;1.00;;;;;;;;5083154;28;9863;-69
2021/03/27 10:14:00;;;;;;;;;1.00;1.00;;;;;;;;5081445;28;9937;-67
2021/03/27 10:16:38;;;;;;;;;3.00;0.50;;;;;;;;5077158;28;9923;-70
2021/03/27 10:19:28;;;;;;;;;0.50;0.50;;;;;;;;5082054;28;9940;-69
2021/03/27 10:22:14;;;;;;;;;0.00;0.00;;;;;;;;5078787;28;9852;-70
2021/03/27 10:24:46;;;;;;;;;0.00;0.00;;;;;;;;5081976;28;9796;-68
2021/03/27 10:27:19;;;;;;;;;3.00;0.00;;;;;;;;5085085;28;10076;-67
2021/03/27 10:29:59;;;;;;;;;0.75;0.75;;;;;;;;5084719;28;10023;-70
2021/03/27 10:32:58;;;;;;;;;0.00;0.00;;;;;;;;5081397;28;9941;-70
2021/03/27 10:36:00;;;;;;;;;0.25;0.00;;;;;;;;5046562;28;10023;-69
2021/03/27 10:38:46;;;;;;;;;0.00;0.00;;;;;;;;5082626;28;10019;-68
2021/03/27 10:41:22;;;;;;;;;0.00;0.00;;;;;;;;5082981;28;9928;-68
2021/03/27 10:43:55;;;;;;;;;0.00;0.00;;;;;;;;5083701;28;10617;-69
2021/03/27 10:46:26;;;;;;;;;0.75;0.75;;;;;;;;5083761;28;9964;-69
2021/03/27 10:49:12;;;;;;;;;0.00;0.00;;;;;;;;5083285;28;9758;-70
2021/03/27 10:52:07;;;;;;;;;0.75;0.25;;;;;;;;5083885;28;10092;-70
2021/03/27 10:55:07;;;;;;;;;1.75;1.75;;;;;;;;5054875;28;10213;-68
2021/03/27 10:58:11;;;;;;;;;0.00;0.00;;;;;;;;5055984;28;10610;-68
2021/03/27 11:00:56;;;;;;;;;0.25;0.25;;;;;;;;5083357;28;10600;-69
2021/03/27 11:04:02;;;;;;;;;0.00;0.00;;;;;;;;5084121;28;10767;-70
2021/03/27 11:07:09;;;;;;;;;0.50;0.50;;;;;;;;5066170;28;10863;-69
2021/03/27 11:10:22;;;;;;;;;2.50;0.75;;;;;;;;5082084;28;11037;-68
2021/03/27 11:13:23;;;;;;;;;1.00;1.00;;;;;;;;5081755;28;11108;-70
2021/03/27 11:16:20;;;;;;;;;0.00;0.00;;;;;;;;5078458;28;11051;-69
2021/03/27 11:19:31;;;;;;;;;1.50;0.25;;;;;;;;5065218;28;10960;-68
2021/03/27 11:22:20;;;;;;;;;0.25;0.25;;;;;;;;5047726;28;11816;-69
2021/03/27 11:25:12;;;;;;;;;2.50;1.00;;;;;;;;5082617;28;10896;-68
2021/03/27 11:28:07;;;;;;;;;2.00;0.00;;;;;;;;5083728;28;10969;-72
2021/03/27 11:30:42;;;;;;;;;0.75;0.75;;;;;;;;5064209;28;10712;-69
2021/03/27 11:33:22;;;;;;;;;1.00;1.00;;;;;;;;5083469;28;10824;-68
2021/03/27 11:35:57;;;;;;;;;3.00;1.00;;;;;;;;5079803;28;10839;-69
2021/03/27 11:38:28;;;;;;;;;2.00;0.00;;;;;;;;5084310;28;10726;-69
2021/03/27 11:41:02;;;;;;;;;6.00;3.50;;;;;;;;5086224;28;10634;-68
2021/03/27 11:43:59;;;;;;;;;1.50;1.00;;;;;;;;5083377;28;10984;-70
2021/03/27 11:46:29;;;;;;;;;1.00;1.00;;;;;;;;5079451;28;10969;-69
2021/03/27 11:49:06;;;;;;;;;1.00;1.00;;;;;;;;5082468;28;10949;-68
2021/03/27 11:51:38;;;;;;;;;0.00;0.00;;;;;;;;5084243;28;11059;-71
2021/03/27 11:54:13;;;;;;;;;0.25;0.25;;;;;;;;5084511;28;11046;-72
2021/03/27 11:56:45;;;;;;;;;1.00;1.00;;;;;;;;5082218;28;11151;-73
2021/03/27 12:00:47;;;;;;;;;1.75;0.25;;;;;;;;5081311;28;11269;-69
2021/03/27 12:02:52;;;;;;;;;1.00;1.00;;;;;;;;5081818;28;11065;-69
2021/03/27 12:05:24;;;;;;;;;0.25;0.25;;;;;;;;5051185;28;11194;-69
2021/03/27 12:08:06;;;;;;;;;1.00;1.00;;;;;;;;5084194;28;11120;-69
2021/03/27 12:10:40;;;;;;;;;1.50;1.50;;;;;;;;5080363;28;11905;-71
2021/03/27 12:13:12;;;;;;;;;1.00;1.00;;;;;;;;5083288;28;11207;-70
2021/03/27 12:15:50;;;;;;;;;1.00;1.00;;;;;;;;5083344;28;11445;-69
2021/03/27 12:18:37;;;;;;;;;1.00;1.00;;;;;;;;5082576;28;11257;-69
2021/03/27 12:21:07;;;;;;;;;2.25;1.00;;;;;;;;5071595;28;11507;-71
2021/03/27 12:23:37;;;;;;;;;1.00;1.00;;;;;;;;5081839;28;11441;-70
2021/03/27 12:26:14;;;;;;;;;1.50;1.50;;;;;;;;5084029;28;11187;-69
2021/03/27 12:28:51;;;;;;;;;1.00;1.00;;;;;;;;5081726;28;11340;-70
2021/03/27 12:31:45;;;;;;;;;2.25;2.25;;;;;;;;5081950;28;10998;-70
2021/03/27 12:34:19;;;;;;;;;5.25;1.25;;;;;;;;5078215;28;11069;-73
2021/03/27 12:36:54;;;;;;;;;2.00;2.00;;;;;;;;5079692;28;11802;-69
2021/03/27 12:39:26;;;;;;;;;1.75;1.75;;;;;;;;5082767;28;10936;-70
2021/03/27 12:42:04;;;;;;;;;1.50;1.50;;;;;;;;5079377;28;11765;-71
2021/03/27 12:44:33;;;;;;;;;0.75;0.75;;;;;;;;5068260;28;10947;-73
2021/03/27 12:47:33;;;;;;;;;1.00;1.00;;;;;;;;5079813;28;10643;-70
2021/03/27 12:50:26;;;;;;;;;1.00;1.00;;;;;;;;5071488;28;10767;-72
2021/03/27 12:53:25;;;;;;;;;3.00;0.25;;;;;;;;5072304;28;10753;-71
2021/03/27 12:56:09;;;;;;;;;1.00;1.00;;;;;;;;5076004;28;10539;-71
2021/03/27 12:58:47;;;;;;;;;2.75;1.00;;;;;;;;5076606;28;10551;-69
2021/03/27 13:01:48;;;;;;;;;1.50;0.75;;;;;;;;5079165;28;10543;-70
2021/03/27 13:04:39;;;;;;;;;1.75;1.00;;;;;;;;5074900;28;10478;-70
2021/03/27 13:07:18;;;;;;;;;2.75;1.00;;;;;;;;5079497;28;10669;-71
2021/03/27 13:10:11;;;;;;;;;0.00;0.00;;;;;;;;5080798;28;10523;-69
2021/03/27 13:12:43;;;;;;;;;1.00;1.00;;;;;;;;5074994;28;10369;-71
2021/03/27 13:15:29;;;;;;;;;2.00;1.00;;;;;;;;5078112;28;10895;-70
2021/03/27 13:18:28;;;;;;;;;0.00;0.00;;;;;;;;5077008;28;10177;-70
2021/03/27 13:21:16;;;;;;;;;0.50;0.50;;;;;;;;5080253;28;10020;-72
2021/03/27 13:23:46;;;;;;;;;0.00;0.00;;;;;;;;5071511;28;9941;-70
2021/03/27 13:26:19;;;;;;;;;1.00;1.00;;;;;;;;5080267;28;9837;-71
2021/03/27 13:28:53;;;;;;;;;0.25;0.25;;;;;;;;5079950;28;9842;-73
2021/03/27 13:31:22;;;;;;;;;1.50;0.00;;;;;;;;5078265;28;9945;-71
2021/03/27 13:33:54;;;;;;;;;0.25;0.25;;;;;;;;5077742;28;9840;-69
2021/03/27 13:36:29;;;;;;;;;1.00;1.00;;;;;;;;5074675;28;9932;-71
2021/03/27 13:39:05;;;;;;;;;0.75;0.75;;;;;;;;5075405;28;9954;-69
2021/03/27 13:41:57;;;;;;;;;0.00;0.00;;;;;;;;5076815;28;9807;-72
2021/03/27 13:44:31;;;;;;;;;1.50;0.00;;;;;;;;5077149;28;9769;-71
2021/03/27 13:47:08;;;;;;;;;1.00;1.00;;;;;;;;5073559;28;10669;-70
2021/03/27 13:49:41;;;;;;;;;1.00;1.00;;;;;;;;5079696;28;9860;-71
2021/03/27 13:52:15;;;;;;;;;1.00;1.00;;;;;;;;5080070;28;9921;-70
2021/03/27 13:54:46;;;;;;;;;1.50;1.00;;;;;;;;5077105;28;9727;-70
2021/03/27 13:57:22;;;;;;;;;1.00;1.00;;;;;;;;5079786;28;9713;-70
2021/03/27 13:59:58;;;;;;;;;2.00;0.00;;;;;;;;5070554;28;9784;-70
2021/03/27 14:02:46;;;;;;;;;2.00;2.00;;;;;;;;5079463;27;9833;-72
2021/03/27 14:05:20;;;;;;;;;1.00;1.00;;;;;;;;5084056;28;10016;-71
2021/03/27 14:07:49;;;;;;;;;1.25;0.50;;;;;;;;5081354;28;9869;-71
2021/03/27 14:10:22;;;;;;;;;0.75;0.75;;;;;;;;5083004;28;9707;-69
2021/03/27 14:12:55;;;;;;;;;1.00;1.00;;;;;;;;5080358;28;9733;-69
2021/03/27 14:15:32;;;;;;;;;1.00;1.00;;;;;;;;5083212;28;9701;-70
2021/03/27 14:18:26;;;;;;;;;0.75;0.75;;;;;;;;5083614;28;9763;-69
2021/03/27 14:21:01;;;;;;;;;0.00;0.00;;;;;;;;5082767;28;9733;-71
2021/03/27 14:23:43;;;;;;;;;2.00;0.50;;;;;;;;5082696;28;9901;-70
2021/03/27 14:26:21;;;;;;;;;1.75;0.25;;;;;;;;5083246;28;9704;-70
2021/03/27 14:28:57;;;;;;;;;0.75;0.75;;;;;;;;5080393;28;9694;-71
2021/03/27 14:31:46;;;;;;;;;0.00;0.00;;;;;;;;5081124;27;9812;-69
2021/03/27 14:34:32;;;;;;;;;1.00;1.00;;;;;;;;5064598;28;9771;-69
2021/03/27 14:37:26;;;;;;;;;0.00;0.00;;;;;;;;5083110;28;9628;-69
2021/03/27 14:40:29;;;;;;;;;0.00;0.00;;;;;;;;5076036;28;9577;-69
2021/03/27 14:43:29;;;;;;;;;2.00;0.00;;;;;;;;5076207;28;10117;-71
2021/03/27 14:46:20;;;;;;;;;0.00;0.00;;;;;;;;5089730;28;10075;-71
2021/03/27 14:49:14;;;;;;;;;2.00;0.67;;;;;;;;5084026;28;10200;-70
2021/03/27 14:51:49;;;;;;;;;1.00;1.00;;;;;;;;5061869;28;10345;-68
2021/03/27 14:54:38;;;;;;;;;2.33;0.00;;;;;;;;5083271;28;9510;-69
2021/03/27 14:57:12;;;;;;;;;0.67;0.00;;;;;;;;5075047;28;9404;-68
2021/03/27 14:59:42;;;;;;;;;0.25;0.25;;;;;;;;5084305;28;9500;-69
2021/03/27 15:02:20;;;;;;;;;1.00;1.00;;;;;;;;5084622;27;9334;-72
2021/03/27 15:05:12;;;;;;;;;0.00;0.00;;;;;;;;5085238;28;9371;-67
2021/03/27 15:07:43;;;;;;;;;0.67;0.67;;;;;;;;5084496;28;9370;-72
2021/03/27 15:10:49;;;;;;;;;2.75;0.75;;;;;;;;5085818;28;9477;-70
2021/03/27 15:13:45;;;;;;;;;2.00;0.00;;;;;;;;5075247;28;9539;-70
2021/03/27 15:16:44;;;;;;;;;1.25;1.25;;;;;;;;5081838;28;9503;-68
2021/03/27 15:19:22;;;;;;;;;0.00;0.00;;;;;;;;5078220;28;9673;-69
2021/03/27 15:22:07;;;;;;;;;0.00;0.00;;;;;;;;5084211;28;9394;-68
2021/03/27 15:27:16;;;;;;;;;1.00;1.00;;;;;;;;5085800;28;9427;-70
2021/03/27 15:27:35;;;;;;;;;1.00;1.00;;;;;;;;5080912;28;9403;-72
2021/03/27 15:30:09;;;;;;;;;2.00;0.67;;;;;;;;5084657;28;9361;-70
2021/03/27 15:32:41;;;;;;;;;0.00;0.00;;;;;;;;5084247;28;9266;-69
2021/03/27 15:35:24;;;;;;;;;0.00;0.00;;;;;;;;5084236;28;9311;-69
2021/03/27 15:38:03;;;;;;;;;0.00;0.00;;;;;;;;5076813;28;9337;-70
2021/03/27 15:40:34;;;;;;;;;0.00;0.00;;;;;;;;5085443;28;9335;-69
2021/03/27 15:43:08;;;;;;;;;0.00;0.00;;;;;;;;5085377;28;9337;-71
2021/03/27 15:45:46;;;;;;;;;0.00;0.00;;;;;;;;5084650;28;9335;-71
2021/03/27 15:48:16;;;;;;;;;0.00;0.00;;;;;;;;5084205;28;9339;-70
2021/03/27 15:50:58;;;;;;;;;1.00;1.00;;;;;;;;5074661;28;9353;-72
2021/03/27 15:53:28;;;;;;;;;0.00;0.00;;;;;;;;5083277;28;9314;-70
2021/03/27 15:56:09;;;;;;;;;2.67;1.00;;;;;;;;5084016;28;9301;-70
2021/03/27 15:58:40;;;;;;;;;0.33;0.33;;;;;;;;5080046;28;9244;-68
2021/03/27 16:01:08;;;;;;;;;0.00;0.00;;;;;;;;5082710;27;9211;-69
2021/03/27 16:03:46;;;;;;;;;0.00;0.00;;;;;;;;5085899;28;9298;-69
2021/03/27 16:06:23;;;;;;;;;0.00;0.00;;;;;;;;5084406;28;9198;-70
2021/03/27 16:08:56;;;;;;;;;0.00;0.00;;;;;;;;5083371;28;9207;-69
2021/03/27 16:11:44;;;;;;;;;3.00;0.67;;;;;;;;5072019;28;9036;-69
2021/03/27 16:14:17;;;;;;;;;3.67;2.00;;;;;;;;5084017;28;9029;-69
2021/03/27 16:17:23;;;;;;;;;2.00;1.00;;;;;;;;5084192;28;9923;-69
2021/03/27 16:20:04;;;;;;;;;0.00;0.00;;;;;;;;5060165;28;8951;-68